createdAt,value
2022-10-17T00:00:12.355Z,100.00
2022-10-17T00:02:38.966Z,100.00
2022-10-17T00:05:05.715Z,100.00
2022-10-17T00:07:32.354Z,100.00
2022-10-17T00:09:59.293Z,100.00
2022-10-17T00:12:25.952Z,100.00
2022-10-17T00:14:52.566Z,100.00
2022-10-17T00:17:19.288Z,100.00
2022-10-17T00:19:46.003Z,100.00
2022-10-17T00:22:13.433Z,100.00
2022-10-17T00:24:40.107Z,100.00
2022-10-17T00:27:06.784Z,100.00
2022-10-17T00:29:33.541Z,100.00
2022-10-17T00:32:00.239Z,100.00
2022-10-17T00:34:29.193Z,100.00
2022-10-17T00:36:57.503Z,100.00
2022-10-17T00:39:24.930Z,100.00
2022-10-17T00:41:51.586Z,100.00
2022-10-17T00:44:31.831Z,100.00
2022-10-17T00:47:01.911Z,100.00
2022-10-17T00:49:31.104Z,100.00
2022-10-17T00:52:02.202Z,100.00
2022-10-17T00:54:39.663Z,100.00
2022-10-17T00:57:07.007Z,100.00
2022-10-17T00:59:36.060Z,100.00
2022-10-17T01:02:13.506Z,100.00
2022-10-17T01:04:44.604Z,100.00
2022-10-17T01:07:12.640Z,100.00
2022-10-17T01:09:41.012Z,100.00
2022-10-17T01:12:23.264Z,100.00
2022-10-17T01:15:13.257Z,100.00
2022-10-17T01:17:39.818Z,100.00
2022-10-17T01:20:29.535Z,100.00
2022-10-17T01:22:56.127Z,100.00
2022-10-17T01:25:59.650Z,100.00
2022-10-17T01:28:54.272Z,100.00
2022-10-17T01:31:29.640Z,100.00
2022-10-17T01:34:12.366Z,100.00
2022-10-17T01:36:50.670Z,100.00
2022-10-17T01:39:25.025Z,100.00
2022-10-17T01:42:02.744Z,100.00
2022-10-17T01:44:44.123Z,100.00
2022-10-17T01:47:15.973Z,100.00
2022-10-17T01:49:45.717Z,100.00
2022-10-17T01:52:23.224Z,100.00
2022-10-17T01:54:55.639Z,100.00
2022-10-17T01:57:34.933Z,100.00
2022-10-17T02:00:05.733Z,100.00
2022-10-17T02:02:41.219Z,100.00
2022-10-17T02:05:08.856Z,100.00
2022-10-17T02:07:35.490Z,100.00
2022-10-17T02:10:09.151Z,100.00
2022-10-17T02:13:17.390Z,100.00
2022-10-17T02:16:14.228Z,100.00
2022-10-17T02:18:53.004Z,100.00
2022-10-17T02:21:44.190Z,100.00
2022-10-17T02:24:16.955Z,100.00
2022-10-17T02:26:52.705Z,100.00
2022-10-17T02:29:33.285Z,100.00
2022-10-17T02:32:12.398Z,100.00
2022-10-17T02:34:47.597Z,100.00
2022-10-17T02:37:19.366Z,100.00
2022-10-17T02:39:47.599Z,100.00
2022-10-17T02:42:15.851Z,100.00
2022-10-17T02:44:44.927Z,100.00
2022-10-17T02:47:54.386Z,100.00
2022-10-17T02:50:26.642Z,100.00
2022-10-17T02:53:00.643Z,100.00
2022-10-17T02:55:43.300Z,100.00
2022-10-17T02:58:21.007Z,100.00
2022-10-17T03:00:48.948Z,100.00
2022-10-17T03:03:28.149Z,100.00
2022-10-17T03:05:58.988Z,100.00
2022-10-17T03:08:26.422Z,100.00
2022-10-17T03:10:53.150Z,100.00
2022-10-17T03:13:21.428Z,100.00
2022-10-17T03:15:48.298Z,100.00
2022-10-17T03:18:14.984Z,100.00
2022-10-17T03:20:41.711Z,100.00
2022-10-17T03:23:08.691Z,100.00
2022-10-17T03:25:36.360Z,100.00
2022-10-17T03:28:03.182Z,100.00
2022-10-17T03:30:29.801Z,100.00
2022-10-17T03:32:58.512Z,100.00
2022-10-17T03:35:26.079Z,100.00
2022-10-17T03:37:52.807Z,100.00
2022-10-17T03:40:21.813Z,100.00
2022-10-17T03:42:48.526Z,100.00
2022-10-17T03:45:15.147Z,100.00
2022-10-17T03:47:42.256Z,100.00
2022-10-17T03:50:09.290Z,100.00
2022-10-17T03:52:38.153Z,100.00
2022-10-17T03:55:05.273Z,100.00
2022-10-17T03:57:32.325Z,100.00
2022-10-17T03:59:59.281Z,100.00
2022-10-17T04:02:25.986Z,100.00
2022-10-17T04:04:52.811Z,100.00
2022-10-17T04:07:19.484Z,100.00
2022-10-17T04:09:48.151Z,100.00
2022-10-17T04:12:19.081Z,100.00
2022-10-17T04:14:46.282Z,100.00
2022-10-17T04:17:14.022Z,100.00
2022-10-17T04:19:40.790Z,100.00
2022-10-17T04:22:10.170Z,100.00
2022-10-17T04:24:39.084Z,100.00
2022-10-17T04:27:09.405Z,100.00
2022-10-17T04:29:40.201Z,100.00
2022-10-17T04:32:20.595Z,100.00
2022-10-17T04:34:56.160Z,100.00
2022-10-17T04:37:23.636Z,100.00
2022-10-17T04:39:52.654Z,100.00
2022-10-17T04:42:19.951Z,100.00
2022-10-17T04:44:47.102Z,100.00
2022-10-17T04:47:16.282Z,100.00
2022-10-17T04:49:43.632Z,100.00
2022-10-17T04:52:10.992Z,100.00
2022-10-17T04:54:40.663Z,100.00
2022-10-17T04:57:10.074Z,100.00
2022-10-17T04:59:37.140Z,100.00
2022-10-17T05:02:27.739Z,100.00
2022-10-17T05:04:55.289Z,100.00
2022-10-17T05:07:22.202Z,100.00
2022-10-17T05:10:10.807Z,100.00
2022-10-17T05:12:39.282Z,100.00
2022-10-17T05:15:06.695Z,100.00
2022-10-17T05:17:35.205Z,100.00
2022-10-17T05:20:01.929Z,100.00
2022-10-17T05:22:30.949Z,100.00
2022-10-17T05:25:00.569Z,100.00
2022-10-17T05:27:27.189Z,100.00
2022-10-17T05:29:53.836Z,100.00
2022-10-17T05:32:26.940Z,100.00
2022-10-17T05:34:53.731Z,100.00
2022-10-17T05:37:22.589Z,100.00
2022-10-17T05:39:51.826Z,100.00
2022-10-17T05:42:19.692Z,100.00
2022-10-17T05:44:47.240Z,100.00
2022-10-17T05:47:16.179Z,100.00
2022-10-17T05:49:48.549Z,100.00
2022-10-17T05:52:19.949Z,100.00
2022-10-17T05:55:10.181Z,100.00
2022-10-17T05:57:36.941Z,100.00
2022-10-17T06:00:06.998Z,100.00
2022-10-17T06:02:45.957Z,100.00
2022-10-17T06:05:15.265Z,100.00
2022-10-17T06:07:42.802Z,100.00
2022-10-17T06:10:12.357Z,100.00
2022-10-17T06:12:39.803Z,100.00
2022-10-17T06:15:08.630Z,100.00
2022-10-17T06:17:36.237Z,100.00
2022-10-17T06:20:03.097Z,100.00
2022-10-17T06:22:30.116Z,100.00
2022-10-17T06:24:57.399Z,100.00
2022-10-17T06:27:24.232Z,100.00
2022-10-17T06:29:51.290Z,100.00
2022-10-17T06:32:18.335Z,100.00
2022-10-17T06:34:49.226Z,100.00
2022-10-17T06:37:17.009Z,100.00
2022-10-17T06:39:45.711Z,100.00
2022-10-17T06:42:15.903Z,100.00
2022-10-17T06:45:09.585Z,100.00
2022-10-17T06:47:51.867Z,100.00
2022-10-17T06:50:37.207Z,100.00
2022-10-17T06:53:12.535Z,100.00
2022-10-17T06:56:02.855Z,100.00
2022-10-17T06:58:51.314Z,100.00
2022-10-17T07:01:29.925Z,100.00
2022-10-17T07:03:58.754Z,100.00
2022-10-17T07:06:25.917Z,100.00
2022-10-17T07:08:55.800Z,100.00
2022-10-17T07:11:23.206Z,100.00
2022-10-17T07:13:52.299Z,100.00
2022-10-17T07:16:21.242Z,100.00
2022-10-17T07:18:52.571Z,100.00
2022-10-17T07:21:21.031Z,100.00
2022-10-17T07:23:48.454Z,100.00
2022-10-17T07:26:16.690Z,100.00
2022-10-17T07:28:46.511Z,100.00
2022-10-17T07:31:24.427Z,100.00
2022-10-17T07:33:51.362Z,100.00
2022-10-17T07:36:18.944Z,100.00
2022-10-17T07:38:46.246Z,100.00
2022-10-17T07:41:17.754Z,100.00
2022-10-17T07:43:48.804Z,100.00
2022-10-17T07:46:19.072Z,100.00
2022-10-17T07:48:46.132Z,100.00
2022-10-17T07:51:13.065Z,100.00
2022-10-17T07:53:42.768Z,100.00
2022-10-17T07:56:12.433Z,97.10
2022-10-17T07:58:39.416Z,91.99
2022-10-17T08:01:10.846Z,83.64
2022-10-17T08:03:44.327Z,71.88
2022-10-17T08:06:11.506Z,65.70
2022-10-17T08:08:38.356Z,61.28
2022-10-17T08:11:08.058Z,59.68
2022-10-17T08:13:35.294Z,57.71
2022-10-17T08:16:04.324Z,54.91
2022-10-17T08:18:30.997Z,54.30
2022-10-17T08:21:01.940Z,52.84
2022-10-17T08:23:28.826Z,51.78
2022-10-17T08:25:58.504Z,51.90
2022-10-17T08:28:25.237Z,53.38
2022-10-17T08:30:51.900Z,52.25
2022-10-17T08:33:18.551Z,50.53
2022-10-17T08:35:45.172Z,47.73
2022-10-17T08:38:13.406Z,49.57
2022-10-17T08:40:42.843Z,48.03
2022-10-17T08:43:15.662Z,48.27
2022-10-17T08:45:51.587Z,45.57
2022-10-17T08:48:23.555Z,48.25
2022-10-17T08:50:53.016Z,47.18
2022-10-17T08:53:50.615Z,45.46
2022-10-17T08:56:30.327Z,44.57
2022-10-17T08:59:06.447Z,43.85
2022-10-17T09:01:44.497Z,43.75
2022-10-17T09:04:49.520Z,43.25
2022-10-17T09:08:12.774Z,41.53
2022-10-17T09:11:00.586Z,44.06
2022-10-17T09:13:33.387Z,44.36
2022-10-17T09:16:11.604Z,45.11
2022-10-17T09:18:46.084Z,41.03
2022-10-17T09:21:33.452Z,41.49
2022-10-17T09:24:15.409Z,40.38
2022-10-17T09:26:45.344Z,41.39
2022-10-17T09:29:22.710Z,40.82
2022-10-17T09:32:02.553Z,38.71
2022-10-17T09:34:31.485Z,39.26
2022-10-17T09:37:00.771Z,39.36
2022-10-17T09:39:32.050Z,38.35
2022-10-17T09:42:01.438Z,39.86
2022-10-17T09:44:35.494Z,37.82
2022-10-17T09:47:15.241Z,38.59
2022-10-17T09:49:44.767Z,38.67
2022-10-17T09:52:18.555Z,37.20
2022-10-17T09:54:47.005Z,36.64
2022-10-17T09:57:15.573Z,38.09
2022-10-17T09:59:45.578Z,36.10
2022-10-17T10:02:23.833Z,36.64
2022-10-17T10:05:07.491Z,35.73
2022-10-17T10:07:39.236Z,36.02
2022-10-17T10:10:07.894Z,34.62
2022-10-17T10:12:38.046Z,33.45
2022-10-17T10:15:38.671Z,33.17
2022-10-17T10:18:25.305Z,34.25
2022-10-17T10:21:13.642Z,34.65
2022-10-17T10:23:43.044Z,34.39
2022-10-17T10:26:26.451Z,35.02
2022-10-17T10:29:00.741Z,34.14
2022-10-17T10:31:39.859Z,33.89
2022-10-17T10:34:25.179Z,32.48
2022-10-17T10:36:59.107Z,34.07
2022-10-17T10:39:32.084Z,35.83
2022-10-17T10:42:01.259Z,31.74
2022-10-17T10:44:32.158Z,33.10
2022-10-17T10:47:24.068Z,31.06
2022-10-17T10:49:53.289Z,31.60
2022-10-17T10:52:30.602Z,32.02
2022-10-17T10:55:10.337Z,31.56
2022-10-17T10:57:39.707Z,30.32
2022-10-17T11:00:21.271Z,33.43
2022-10-17T11:03:01.805Z,33.49
2022-10-17T11:05:34.778Z,31.93
2022-10-17T11:08:20.475Z,31.15
2022-10-17T11:10:59.855Z,31.77
2022-10-17T11:13:40.224Z,33.09
2022-10-17T11:16:19.414Z,32.23
2022-10-17T11:18:50.885Z,32.21
2022-10-17T11:21:34.185Z,31.88
2022-10-17T11:24:15.050Z,33.06
2022-10-17T11:27:05.906Z,33.76
2022-10-17T11:29:35.207Z,30.72
2022-10-17T11:32:13.902Z,31.28
2022-10-17T11:34:53.602Z,31.77
2022-10-17T11:37:25.539Z,30.62
2022-10-17T11:39:58.747Z,33.31
2022-10-17T11:42:38.375Z,32.98
2022-10-17T11:45:11.941Z,31.31
2022-10-17T11:47:46.831Z,31.80
2022-10-17T11:53:18.336Z,29.64
2022-10-17T11:55:46.668Z,28.98
2022-10-17T11:58:22.369Z,29.57
2022-10-17T12:01:27.988Z,29.19
2022-10-17T12:04:08.222Z,28.35
2022-10-17T12:07:09.276Z,31.74
2022-10-17T12:09:51.958Z,30.18
2022-10-17T12:12:33.257Z,30.29
2022-10-17T12:15:26.334Z,29.55
2022-10-17T12:18:06.588Z,29.95
2022-10-17T12:20:38.457Z,29.38
2022-10-17T12:23:11.152Z,27.58
2022-10-17T12:25:51.920Z,25.77
2022-10-17T12:28:18.622Z,23.01
2022-10-17T12:31:06.191Z,20.65
2022-10-17T12:33:49.489Z,19.51
2022-10-17T12:36:18.857Z,19.11
2022-10-17T12:38:49.865Z,20.62
2022-10-17T12:41:37.156Z,19.30
2022-10-17T12:44:21.592Z,19.30
2022-10-17T12:46:55.467Z,19.78
2022-10-17T12:49:54.340Z,23.15
2022-10-17T12:52:59.123Z,27.45
2022-10-17T12:55:26.422Z,28.67
2022-10-17T12:58:08.182Z,30.79
2022-10-17T13:01:18.858Z,29.17
2022-10-17T13:03:44.605Z,30.80
2022-10-17T13:06:23.859Z,30.53
2022-10-17T13:09:04.462Z,31.67
2022-10-17T13:11:33.617Z,31.57
2022-10-17T13:14:03.377Z,34.42
2022-10-17T13:16:39.339Z,31.47
2022-10-17T13:19:24.536Z,33.17
2022-10-17T13:22:06.900Z,32.67
2022-10-17T13:24:39.463Z,34.51
2022-10-17T13:27:21.966Z,33.80
2022-10-17T13:29:48.626Z,34.47
2022-10-17T13:32:15.320Z,34.07
2022-10-17T13:34:42.026Z,36.80
2022-10-17T13:37:14.861Z,34.92
2022-10-17T13:39:54.799Z,36.90
2022-10-17T13:42:29.232Z,36.18
2022-10-17T13:44:57.581Z,36.31
2022-10-17T13:47:28.101Z,35.73
2022-10-17T13:49:55.862Z,36.81
2022-10-17T13:52:27.088Z,36.45
2022-10-17T13:54:55.054Z,35.05
2022-10-17T13:57:25.087Z,36.63
2022-10-17T14:00:09.900Z,37.85
2022-10-17T14:02:42.899Z,35.91
2022-10-17T14:05:19.210Z,37.15
2022-10-17T14:10:42.267Z,37.02
2022-10-17T14:13:21.205Z,37.17
2022-10-17T14:15:48.396Z,40.28
2022-10-17T14:18:21.000Z,39.61
2022-10-17T14:23:43.023Z,38.20
2022-10-17T14:26:23.581Z,39.51
2022-10-17T14:29:06.997Z,39.16
2022-10-17T14:31:36.651Z,40.18
2022-10-17T14:34:05.401Z,40.89
2022-10-17T14:36:36.264Z,42.97
2022-10-17T14:39:04.836Z,43.61
2022-10-17T14:41:44.123Z,44.31
2022-10-17T14:44:25.898Z,44.77
2022-10-17T14:46:56.695Z,44.46
2022-10-17T14:49:28.539Z,45.06
2022-10-17T14:52:17.553Z,47.64
2022-10-17T14:54:48.921Z,48.72
2022-10-17T14:57:43.555Z,49.53
2022-10-17T15:00:15.090Z,52.26
2022-10-17T15:02:41.925Z,52.29
2022-10-17T15:05:13.073Z,51.43
2022-10-17T15:07:40.586Z,52.07
2022-10-17T15:10:11.962Z,54.55
2022-10-17T15:12:39.789Z,56.61
2022-10-17T15:15:12.999Z,60.11
2022-10-17T15:17:41.819Z,62.61
2022-10-17T15:20:17.760Z,63.88
2022-10-17T15:22:45.615Z,63.45
2022-10-17T15:25:12.320Z,66.33
2022-10-17T15:27:38.995Z,68.08
2022-10-17T15:30:21.600Z,70.73
2022-10-17T15:32:49.505Z,71.92
2022-10-17T15:35:17.509Z,73.25
2022-10-17T15:37:46.365Z,73.79
2022-10-17T15:40:20.869Z,74.97
2022-10-17T15:42:47.813Z,76.45
2022-10-17T15:45:17.659Z,77.54
2022-10-17T15:47:50.954Z,78.42
2022-10-17T15:50:18.407Z,79.93
2022-10-17T15:52:47.032Z,81.09
2022-10-17T15:55:13.861Z,82.56
2022-10-17T15:57:44.073Z,83.89
2022-10-17T16:00:20.516Z,84.91
2022-10-17T16:02:49.328Z,86.06
2022-10-17T16:05:18.023Z,87.04
2022-10-17T16:07:48.470Z,88.31
2022-10-17T16:10:16.422Z,89.33
2022-10-17T16:12:43.724Z,90.05
2022-10-17T16:15:16.363Z,91.29
2022-10-17T16:17:43.874Z,91.48
2022-10-17T16:20:12.213Z,92.45
2022-10-17T16:22:40.698Z,93.01
2022-10-17T16:25:20.489Z,93.38
2022-10-17T16:27:49.367Z,94.51
2022-10-17T16:30:16.499Z,95.20
2022-10-17T16:32:43.619Z,94.47
2022-10-17T16:35:16.351Z,95.37
2022-10-17T16:37:43.074Z,96.01
2022-10-17T16:40:10.424Z,96.83
2022-10-17T16:42:37.112Z,97.39
2022-10-17T16:45:04.150Z,97.60
2022-10-17T16:47:30.792Z,98.11
2022-10-17T16:49:57.529Z,98.89
2022-10-17T16:52:24.179Z,100.00
2022-10-17T16:54:50.856Z,100.00
2022-10-17T16:57:17.491Z,100.00
2022-10-17T16:59:44.186Z,100.00
2022-10-17T17:02:12.039Z,100.00
2022-10-17T17:04:38.803Z,100.00
2022-10-17T17:07:05.426Z,100.00
2022-10-17T17:09:32.065Z,100.00
2022-10-17T17:11:58.693Z,100.00
2022-10-17T17:14:25.296Z,100.00
2022-10-17T17:16:51.941Z,100.00
2022-10-17T17:19:18.676Z,100.00
2022-10-17T17:21:50.118Z,100.00
2022-10-17T17:24:18.080Z,100.00
2022-10-17T17:26:45.282Z,100.00
2022-10-17T17:29:12.250Z,100.00
2022-10-17T17:31:39.363Z,100.00
2022-10-17T17:34:09.659Z,100.00
2022-10-17T17:36:38.502Z,100.00
2022-10-17T17:39:09.218Z,100.00
2022-10-17T17:41:35.902Z,100.00
2022-10-17T17:44:03.480Z,100.00
2022-10-17T17:46:30.499Z,100.00
2022-10-17T17:48:57.251Z,100.00
2022-10-17T17:51:28.327Z,100.00
2022-10-17T17:53:56.367Z,100.00
2022-10-17T17:56:30.618Z,100.00
2022-10-17T17:59:01.105Z,100.00
2022-10-17T18:01:30.520Z,100.00
2022-10-17T18:04:01.693Z,100.00
2022-10-17T18:06:28.924Z,100.00
2022-10-17T18:08:58.026Z,100.00
2022-10-17T18:11:26.182Z,100.00
2022-10-17T18:14:01.232Z,100.00
2022-10-17T18:16:29.530Z,100.00
2022-10-17T18:18:56.597Z,100.00
2022-10-17T18:21:23.601Z,100.00
2022-10-17T18:23:51.778Z,100.00
2022-10-17T18:26:18.953Z,100.00
2022-10-17T18:28:46.036Z,100.00
2022-10-17T18:31:12.574Z,100.00
2022-10-17T18:33:39.822Z,100.00
2022-10-17T18:36:09.665Z,100.00
2022-10-17T18:38:36.970Z,100.00
2022-10-17T18:41:09.435Z,100.00
2022-10-17T18:43:37.368Z,100.00
2022-10-17T18:46:12.421Z,100.00
2022-10-17T18:48:44.475Z,100.00
2022-10-17T18:51:12.574Z,100.00
2022-10-17T18:53:44.582Z,100.00
2022-10-17T18:56:12.320Z,100.00
2022-10-17T18:58:39.972Z,100.00
2022-10-17T19:01:09.852Z,100.00
2022-10-17T19:03:37.218Z,100.00
2022-10-17T19:06:10.124Z,100.00
2022-10-17T19:08:38.067Z,100.00
2022-10-17T19:11:10.095Z,100.00
2022-10-17T19:13:37.526Z,100.00
2022-10-17T19:16:21.443Z,100.00
2022-10-17T19:18:53.276Z,100.00
2022-10-17T19:21:21.945Z,100.00
2022-10-17T19:23:55.186Z,100.00
2022-10-17T19:26:22.341Z,100.00
2022-10-17T19:28:52.116Z,100.00
2022-10-17T19:31:26.239Z,100.00
2022-10-17T19:33:54.912Z,100.00
2022-10-17T19:36:26.291Z,100.00
2022-10-17T19:38:56.743Z,100.00
2022-10-17T19:41:23.815Z,100.00
2022-10-17T19:43:50.885Z,100.00
2022-10-17T19:46:20.691Z,100.00
2022-10-17T19:48:49.239Z,100.00
2022-10-17T19:51:17.727Z,100.00
2022-10-17T19:53:44.823Z,100.00
2022-10-17T19:56:12.417Z,100.00
2022-10-17T19:58:46.523Z,100.00
2022-10-17T20:01:15.973Z,100.00
2022-10-17T20:03:42.995Z,100.00
2022-10-17T20:06:09.638Z,100.00
2022-10-17T20:08:38.255Z,100.00
2022-10-17T20:11:10.867Z,100.00
2022-10-17T20:13:38.237Z,100.00
2022-10-17T20:16:06.431Z,100.00
2022-10-17T20:18:34.119Z,100.00
2022-10-17T20:21:09.978Z,100.00
2022-10-17T20:23:37.582Z,100.00
2022-10-17T20:26:25.314Z,100.00
2022-10-17T20:28:54.174Z,100.00
2022-10-17T20:31:21.710Z,100.00
2022-10-17T20:33:49.212Z,100.00
2022-10-17T20:36:16.694Z,100.00
2022-10-17T20:38:43.813Z,100.00
2022-10-17T20:41:10.942Z,100.00
2022-10-17T20:43:38.598Z,100.00
2022-10-17T20:46:22.936Z,100.00
2022-10-17T20:48:54.515Z,100.00
2022-10-17T20:51:22.155Z,100.00
2022-10-17T20:53:48.971Z,100.00
2022-10-17T20:56:24.405Z,100.00
2022-10-17T20:58:56.598Z,100.00
2022-10-17T21:01:25.309Z,100.00
2022-10-17T21:03:52.743Z,100.00
2022-10-17T21:06:20.294Z,100.00
2022-10-17T21:08:48.511Z,100.00
2022-10-17T21:11:23.398Z,100.00
2022-10-17T21:13:56.540Z,100.00
2022-10-17T21:16:23.501Z,100.00
2022-10-17T21:18:50.674Z,100.00
2022-10-17T21:21:26.789Z,100.00
2022-10-17T21:23:56.226Z,100.00
2022-10-17T21:26:23.249Z,100.00
2022-10-17T21:28:50.469Z,100.00
2022-10-17T21:31:19.953Z,100.00
2022-10-17T21:33:49.687Z,100.00
2022-10-17T21:36:17.348Z,100.00
2022-10-17T21:38:45.750Z,100.00
2022-10-17T21:41:14.219Z,100.00
2022-10-17T21:43:41.955Z,100.00
2022-10-17T21:46:13.180Z,100.00
2022-10-17T21:48:40.222Z,100.00
2022-10-17T21:51:09.810Z,100.00
2022-10-17T21:53:37.154Z,100.00
2022-10-17T21:56:06.347Z,100.00
2022-10-17T21:58:33.760Z,100.00
2022-10-17T22:01:04.950Z,100.00
2022-10-17T22:03:42.588Z,100.00
2022-10-17T22:09:02.487Z,100.00
2022-10-17T22:11:32.812Z,100.00
2022-10-17T22:14:07.002Z,100.00
2022-10-17T22:16:34.487Z,100.00
2022-10-17T22:19:06.145Z,100.00
2022-10-17T22:21:35.395Z,100.00
2022-10-17T22:24:05.659Z,100.00
2022-10-17T22:26:34.607Z,100.00
2022-10-17T22:29:01.706Z,100.00
2022-10-17T22:31:28.528Z,100.00
2022-10-17T22:33:55.834Z,100.00
2022-10-17T22:36:22.683Z,100.00
2022-10-17T22:38:49.253Z,100.00
2022-10-17T22:41:16.084Z,100.00
2022-10-17T22:43:42.713Z,100.00
2022-10-17T22:46:10.322Z,100.00
2022-10-17T22:48:36.929Z,100.00
2022-10-17T22:51:03.619Z,100.00
2022-10-17T22:53:30.423Z,100.00
2022-10-17T22:56:00.396Z,100.00
2022-10-17T22:58:28.765Z,100.00
2022-10-17T23:00:55.831Z,100.00
2022-10-17T23:03:23.510Z,100.00
2022-10-17T23:05:50.938Z,100.00
2022-10-17T23:08:18.310Z,100.00
2022-10-17T23:10:46.382Z,100.00
2022-10-17T23:13:14.149Z,100.00
2022-10-17T23:15:43.513Z,100.00
2022-10-17T23:18:10.513Z,100.00
2022-10-17T23:20:37.873Z,100.00
2022-10-17T23:23:05.028Z,100.00
2022-10-17T23:25:34.051Z,100.00
2022-10-17T23:28:01.199Z,100.00
2022-10-17T23:30:27.895Z,100.00
2022-10-17T23:32:54.497Z,100.00
2022-10-17T23:35:21.085Z,100.00
2022-10-17T23:37:47.697Z,100.00
2022-10-17T23:40:14.311Z,100.00
2022-10-17T23:42:40.958Z,100.00
2022-10-17T23:45:08.274Z,100.00
2022-10-17T23:47:34.916Z,100.00
2022-10-17T23:50:03.535Z,100.00
2022-10-17T23:52:30.115Z,100.00
2022-10-17T23:54:56.774Z,100.00
2022-10-17T23:57:23.399Z,100.00
2022-10-17T23:59:50.051Z,100.00
